sensor_id;sensor_type;location;lat;lon;timestamp;pressure;altitude;pressure_sealevel;temperature;humidity
59939;BME280;45801;51.810;19.444;2022-10-13T00:01:47;100104.44;;;8.17;67.28
59939;BME280;45801;51.810;19.444;2022-10-13T00:04:14;100104.96;;;8.14;67.14
59939;BME280;45801;51.810;19.444;2022-10-13T00:06:40;100106.16;;;8.11;67.05
59939;BME280;45801;51.810;19.444;2022-10-13T00:09:07;100104.02;;;8.08;67.07
59939;BME280;45801;51.810;19.444;2022-10-13T00:11:33;100108.48;;;8.04;67.13
59939;BME280;45801;51.810;19.444;2022-10-13T00:14:02;100106.30;;;8.00;67.14
59939;BME280;45801;51.810;19.444;2022-10-13T00:16:30;100107.94;;;7.96;67.51
59939;BME280;45801;51.810;19.444;2022-10-13T00:18:58;100108.18;;;7.92;67.71
59939;BME280;45801;51.810;19.444;2022-10-13T00:21:26;100106.23;;;7.89;67.62
59939;BME280;45801;51.810;19.444;2022-10-13T00:23:53;100105.25;;;7.85;67.65
59939;BME280;45801;51.810;19.444;2022-10-13T00:26:21;100101.52;;;7.81;67.78
59939;BME280;45801;51.810;19.444;2022-10-13T00:28:48;100097.63;;;7.78;67.83
59939;BME280;45801;51.810;19.444;2022-10-13T00:31:24;100094.94;;;7.77;67.94
59939;BME280;45801;51.810;19.444;2022-10-13T00:33:51;100095.96;;;7.76;67.73
59939;BME280;45801;51.810;19.444;2022-10-13T00:36:19;100093.57;;;7.77;67.78
59939;BME280;45801;51.810;19.444;2022-10-13T00:38:46;100089.13;;;7.78;67.92
59939;BME280;45801;51.810;19.444;2022-10-13T00:41:13;100087.69;;;7.80;67.87
59939;BME280;45801;51.810;19.444;2022-10-13T00:46:36;100088.68;;;7.82;67.52
59939;BME280;45801;51.810;19.444;2022-10-13T00:49:13;100092.20;;;7.83;67.67
59939;BME280;45801;51.810;19.444;2022-10-13T00:51:44;100094.86;;;7.83;67.57
59939;BME280;45801;51.810;19.444;2022-10-13T00:54:18;100090.35;;;7.84;67.36
59939;BME280;45801;51.810;19.444;2022-10-13T00:56:48;100089.66;;;7.81;67.31
59939;BME280;45801;51.810;19.444;2022-10-13T00:59:22;100087.09;;;7.79;67.35
59939;BME280;45801;51.810;19.444;2022-10-13T01:01:50;100084.55;;;7.78;67.32
59939;BME280;45801;51.810;19.444;2022-10-13T01:04:18;100083.94;;;7.76;67.25
59939;BME280;45801;51.810;19.444;2022-10-13T01:06:48;100083.65;;;7.75;67.40
59939;BME280;45801;51.810;19.444;2022-10-13T01:09:14;100083.14;;;7.75;67.57
59939;BME280;45801;51.810;19.444;2022-10-13T01:14:40;100077.40;;;7.70;67.32
59939;BME280;45801;51.810;19.444;2022-10-13T01:17:26;100072.88;;;7.68;67.52
59939;BME280;45801;51.810;19.444;2022-10-13T01:25:57;100062.08;;;7.63;67.69
59939;BME280;45801;51.810;19.444;2022-10-13T01:28:39;100057.81;;;7.64;67.69
59939;BME280;45801;51.810;19.444;2022-10-13T01:31:31;100055.38;;;7.67;67.71
59939;BME280;45801;51.810;19.444;2022-10-13T01:34:17;100052.11;;;7.70;67.81
59939;BME280;45801;51.810;19.444;2022-10-13T01:37:18;100049.48;;;7.72;67.49
59939;BME280;45801;51.810;19.444;2022-10-13T01:39:53;100044.89;;;7.74;67.60
59939;BME280;45801;51.810;19.444;2022-10-13T01:42:26;100038.15;;;7.75;67.37
59939;BME280;45801;51.810;19.444;2022-10-13T01:44:59;100031.23;;;7.73;67.30
59939;BME280;45801;51.810;19.444;2022-10-13T01:47:31;100030.79;;;7.72;67.05
59939;BME280;45801;51.810;19.444;2022-10-13T01:50:00;100029.78;;;7.72;67.01
59939;BME280;45801;51.810;19.444;2022-10-13T01:52:34;100026.02;;;7.71;66.95
59939;BME280;45801;51.810;19.444;2022-10-13T01:55:08;100027.63;;;7.69;66.93
59939;BME280;45801;51.810;19.444;2022-10-13T01:57:44;100025.40;;;7.67;66.98
59939;BME280;45801;51.810;19.444;2022-10-13T02:00:15;100025.98;;;7.65;66.98
59939;BME280;45801;51.810;19.444;2022-10-13T02:02:46;100018.56;;;7.63;67.19
59939;BME280;45801;51.810;19.444;2022-10-13T02:05:35;100014.59;;;7.62;67.20
59939;BME280;45801;51.810;19.444;2022-10-13T02:08:14;100016.54;;;7.59;67.16
59939;BME280;45801;51.810;19.444;2022-10-13T02:10:51;100017.77;;;7.57;67.39
59939;BME280;45801;51.810;19.444;2022-10-13T02:13:20;100013.11;;;7.55;67.20
59939;BME280;45801;51.810;19.444;2022-10-13T02:15:52;100009.91;;;7.54;67.33
59939;BME280;45801;51.810;19.444;2022-10-13T02:18:24;100009.73;;;7.54;67.36
59939;BME280;45801;51.810;19.444;2022-10-13T02:20:55;100004.23;;;7.55;67.34
59939;BME280;45801;51.810;19.444;2022-10-13T02:23:22;100001.08;;;7.55;67.30
59939;BME280;45801;51.810;19.444;2022-10-13T02:25:49;99997.77;;;7.57;67.28
59939;BME280;45801;51.810;19.444;2022-10-13T02:28:16;99995.14;;;7.60;67.36
59939;BME280;45801;51.810;19.444;2022-10-13T02:30:45;99994.26;;;7.62;67.33
59939;BME280;45801;51.810;19.444;2022-10-13T02:33:13;99996.98;;;7.64;67.25
59939;BME280;45801;51.810;19.444;2022-10-13T02:35:41;99999.13;;;7.65;66.76
59939;BME280;45801;51.810;19.444;2022-10-13T02:38:08;100001.56;;;7.65;66.79
59939;BME280;45801;51.810;19.444;2022-10-13T02:40:35;100000.36;;;7.65;66.69
59939;BME280;45801;51.810;19.444;2022-10-13T02:43:02;100002.23;;;7.65;66.86
59939;BME280;45801;51.810;19.444;2022-10-13T02:45:28;100004.98;;;7.64;66.82
59939;BME280;45801;51.810;19.444;2022-10-13T02:47:55;100005.45;;;7.63;66.85
59939;BME280;45801;51.810;19.444;2022-10-13T02:50:23;100003.98;;;7.62;66.86
59939;BME280;45801;51.810;19.444;2022-10-13T02:52:50;99997.77;;;7.61;66.83
59939;BME280;45801;51.810;19.444;2022-10-13T02:55:17;99993.52;;;7.59;66.99
59939;BME280;45801;51.810;19.444;2022-10-13T02:57:45;99990.77;;;7.57;66.63
59939;BME280;45801;51.810;19.444;2022-10-13T03:00:12;99986.75;;;7.55;66.82
59939;BME280;45801;51.810;19.444;2022-10-13T03:02:39;99983.63;;;7.50;66.92
59939;BME280;45801;51.810;19.444;2022-10-13T03:05:05;99986.30;;;7.48;66.89
59939;BME280;45801;51.810;19.444;2022-10-13T03:07:32;99988.25;;;7.46;66.82
59939;BME280;45801;51.810;19.444;2022-10-13T03:09:58;99986.42;;;7.42;66.87
59939;BME280;45801;51.810;19.444;2022-10-13T03:12:26;99983.73;;;7.41;66.79
59939;BME280;45801;51.810;19.444;2022-10-13T03:14:52;99988.06;;;7.38;67.05
59939;BME280;45801;51.810;19.444;2022-10-13T03:17:19;99992.85;;;7.36;66.97
59939;BME280;45801;51.810;19.444;2022-10-13T03:19:47;99993.89;;;7.37;66.94
59939;BME280;45801;51.810;19.444;2022-10-13T03:22:14;99993.59;;;7.37;67.00
59939;BME280;45801;51.810;19.444;2022-10-13T03:24:41;99989.16;;;7.39;67.30
59939;BME280;45801;51.810;19.444;2022-10-13T03:27:10;99989.14;;;7.41;67.60
59939;BME280;45801;51.810;19.444;2022-10-13T03:29:36;99988.64;;;7.44;67.46
59939;BME280;45801;51.810;19.444;2022-10-13T03:32:03;99987.89;;;7.46;67.41
59939;BME280;45801;51.810;19.444;2022-10-13T03:34:30;99986.57;;;7.46;67.26
59939;BME280;45801;51.810;19.444;2022-10-13T03:36:56;99988.89;;;7.47;67.17
59939;BME280;45801;51.810;19.444;2022-10-13T03:39:23;99989.84;;;7.49;67.19
59939;BME280;45801;51.810;19.444;2022-10-13T03:41:49;99990.40;;;7.47;67.09
59939;BME280;45801;51.810;19.444;2022-10-13T03:44:15;99995.73;;;7.46;67.11
59939;BME280;45801;51.810;19.444;2022-10-13T03:46:42;99989.64;;;7.43;67.11
59939;BME280;45801;51.810;19.444;2022-10-13T03:49:10;99990.80;;;7.42;67.10
59939;BME280;45801;51.810;19.444;2022-10-13T03:51:39;99991.31;;;7.42;67.21
59939;BME280;45801;51.810;19.444;2022-10-13T03:54:06;99991.75;;;7.41;67.04
59939;BME280;45801;51.810;19.444;2022-10-13T03:56:33;99992.82;;;7.41;67.16
59939;BME280;45801;51.810;19.444;2022-10-13T03:59:01;99990.18;;;7.41;66.82
59939;BME280;45801;51.810;19.444;2022-10-13T04:01:30;99992.20;;;7.40;66.90
59939;BME280;45801;51.810;19.444;2022-10-13T04:03:58;99992.50;;;7.39;66.93
59939;BME280;45801;51.810;19.444;2022-10-13T04:06:28;99991.04;;;7.38;66.89
59939;BME280;45801;51.810;19.444;2022-10-13T04:08:57;99990.02;;;7.36;66.89
59939;BME280;45801;51.810;19.444;2022-10-13T04:11:24;99985.33;;;7.33;66.96
59939;BME280;45801;51.810;19.444;2022-10-13T04:13:51;99981.79;;;7.33;67.11
59939;BME280;45801;51.810;19.444;2022-10-13T04:16:21;99983.91;;;7.33;66.92
59939;BME280;45801;51.810;19.444;2022-10-13T04:18:56;99981.04;;;7.35;67.02
59939;BME280;45801;51.810;19.444;2022-10-13T04:21:24;99983.49;;;7.35;67.38
59939;BME280;45801;51.810;19.444;2022-10-13T04:23:55;99987.16;;;7.37;67.15
59939;BME280;45801;51.810;19.444;2022-10-13T04:26:25;99986.42;;;7.39;67.23
59939;BME280;45801;51.810;19.444;2022-10-13T04:28:53;99991.87;;;7.40;67.21
59939;BME280;45801;51.810;19.444;2022-10-13T04:31:21;99995.05;;;7.41;67.05
59939;BME280;45801;51.810;19.444;2022-10-13T04:33:52;99995.90;;;7.40;67.00
59939;BME280;45801;51.810;19.444;2022-10-13T04:36:18;99993.46;;;7.40;66.98
59939;BME280;45801;51.810;19.444;2022-10-13T04:38:45;99991.39;;;7.41;66.90
59939;BME280;45801;51.810;19.444;2022-10-13T04:41:13;99987.17;;;7.38;67.00
59939;BME280;45801;51.810;19.444;2022-10-13T04:43:42;99992.20;;;7.34;66.86
59939;BME280;45801;51.810;19.444;2022-10-13T04:46:13;99992.18;;;7.34;66.92
59939;BME280;45801;51.810;19.444;2022-10-13T04:48:40;99996.27;;;7.33;66.97
59939;BME280;45801;51.810;19.444;2022-10-13T04:51:11;99994.58;;;7.31;66.81
59939;BME280;45801;51.810;19.444;2022-10-13T04:53:39;99997.61;;;7.30;66.71
59939;BME280;45801;51.810;19.444;2022-10-13T04:56:08;99997.99;;;7.28;66.51
59939;BME280;45801;51.810;19.444;2022-10-13T04:58:37;99996.13;;;7.26;66.75
59939;BME280;45801;51.810;19.444;2022-10-13T05:01:06;99995.48;;;7.24;66.88
59939;BME280;45801;51.810;19.444;2022-10-13T05:03:33;99990.20;;;7.21;66.84
59939;BME280;45801;51.810;19.444;2022-10-13T05:06:00;99990.47;;;7.17;66.94
59939;BME280;45801;51.810;19.444;2022-10-13T05:08:26;99992.32;;;7.16;66.74
59939;BME280;45801;51.810;19.444;2022-10-13T05:10:56;99990.75;;;7.13;66.68
59939;BME280;45801;51.810;19.444;2022-10-13T05:13:24;99992.87;;;7.11;66.70
59939;BME280;45801;51.810;19.444;2022-10-13T05:15:51;99992.95;;;7.10;66.98
59939;BME280;45801;51.810;19.444;2022-10-13T05:18:17;99993.13;;;7.10;67.09
59939;BME280;45801;51.810;19.444;2022-10-13T05:20:44;99991.29;;;7.11;67.23
59939;BME280;45801;51.810;19.444;2022-10-13T05:23:12;99986.36;;;7.13;67.37
59939;BME280;45801;51.810;19.444;2022-10-13T05:25:39;99985.33;;;7.16;67.52
59939;BME280;45801;51.810;19.444;2022-10-13T05:28:06;99984.90;;;7.19;67.37
59939;BME280;45801;51.810;19.444;2022-10-13T05:30:33;99988.96;;;7.23;67.28
59939;BME280;45801;51.810;19.444;2022-10-13T05:33:03;99993.64;;;7.25;67.18
59939;BME280;45801;51.810;19.444;2022-10-13T05:35:30;99994.59;;;7.26;67.47
59939;BME280;45801;51.810;19.444;2022-10-13T05:37:56;99995.74;;;7.28;67.35
59939;BME280;45801;51.810;19.444;2022-10-13T05:40:24;99995.26;;;7.28;67.19
59939;BME280;45801;51.810;19.444;2022-10-13T05:42:51;99993.90;;;7.29;67.15
59939;BME280;45801;51.810;19.444;2022-10-13T05:45:18;99998.85;;;7.30;67.25
59939;BME280;45801;51.810;19.444;2022-10-13T05:47:45;99999.73;;;7.30;67.44
59939;BME280;45801;51.810;19.444;2022-10-13T05:50:12;99999.19;;;7.30;67.40
59939;BME280;45801;51.810;19.444;2022-10-13T05:52:42;99998.45;;;7.29;67.59
59939;BME280;45801;51.810;19.444;2022-10-13T05:55:16;99999.65;;;7.29;67.71
59939;BME280;45801;51.810;19.444;2022-10-13T05:57:47;100001.84;;;7.30;67.89
59939;BME280;45801;51.810;19.444;2022-10-13T06:00:17;100001.06;;;7.32;67.80
59939;BME280;45801;51.810;19.444;2022-10-13T06:03:10;100002.15;;;7.35;67.81
59939;BME280;45801;51.810;19.444;2022-10-13T06:05:39;100005.23;;;7.36;67.99
59939;BME280;45801;51.810;19.444;2022-10-13T06:08:08;100006.99;;;7.39;67.96
59939;BME280;45801;51.810;19.444;2022-10-13T06:10:38;100003.00;;;7.42;67.99
59939;BME280;45801;51.810;19.444;2022-10-13T06:13:05;99999.80;;;7.47;68.22
59939;BME280;45801;51.810;19.444;2022-10-13T06:15:33;99994.74;;;7.51;68.28
59939;BME280;45801;51.810;19.444;2022-10-13T06:17:59;99997.20;;;7.57;68.61
59939;BME280;45801;51.810;19.444;2022-10-13T06:20:26;99994.55;;;7.64;68.66
59939;BME280;45801;51.810;19.444;2022-10-13T06:22:56;99991.42;;;7.70;68.75
59939;BME280;45801;51.810;19.444;2022-10-13T06:25:22;99986.16;;;7.74;68.67
59939;BME280;45801;51.810;19.444;2022-10-13T06:27:49;99985.77;;;7.79;68.35
59939;BME280;45801;51.810;19.444;2022-10-13T06:30:15;99982.73;;;7.89;68.54
59939;BME280;45801;51.810;19.444;2022-10-13T06:32:42;99982.23;;;8.02;68.70
59939;BME280;45801;51.810;19.444;2022-10-13T06:35:08;99981.34;;;8.10;68.11
59939;BME280;45801;51.810;19.444;2022-10-13T06:37:35;99980.83;;;8.10;68.49
59939;BME280;45801;51.810;19.444;2022-10-13T06:40:02;99981.58;;;8.11;68.33
59939;BME280;45801;51.810;19.444;2022-10-13T06:42:28;99980.34;;;8.13;68.44
59939;BME280;45801;51.810;19.444;2022-10-13T06:44:57;99978.03;;;8.16;68.72
59939;BME280;45801;51.810;19.444;2022-10-13T06:47:24;99974.66;;;8.17;68.74
59939;BME280;45801;51.810;19.444;2022-10-13T06:49:51;99975.14;;;8.20;68.87
59939;BME280;45801;51.810;19.444;2022-10-13T06:52:17;99976.90;;;8.23;69.11
59939;BME280;45801;51.810;19.444;2022-10-13T06:54:43;99975.73;;;8.26;69.18
59939;BME280;45801;51.810;19.444;2022-10-13T06:57:10;99975.36;;;8.31;69.17
59939;BME280;45801;51.810;19.444;2022-10-13T06:59:37;99975.45;;;8.38;69.34
59939;BME280;45801;51.810;19.444;2022-10-13T07:02:04;99971.27;;;8.46;69.53
59939;BME280;45801;51.810;19.444;2022-10-13T07:04:30;99973.52;;;8.56;69.61
59939;BME280;45801;51.810;19.444;2022-10-13T07:06:57;99971.41;;;8.65;69.63
59939;BME280;45801;51.810;19.444;2022-10-13T07:09:23;99971.63;;;8.74;69.61
59939;BME280;45801;51.810;19.444;2022-10-13T07:11:52;99965.81;;;8.81;69.27
59939;BME280;45801;51.810;19.444;2022-10-13T07:14:18;99961.05;;;8.92;69.23
59939;BME280;45801;51.810;19.444;2022-10-13T07:16:47;99956.84;;;8.97;69.22
59939;BME280;45801;51.810;19.444;2022-10-13T07:19:13;99956.36;;;9.04;68.83
59939;BME280;45801;51.810;19.444;2022-10-13T07:21:40;99954.84;;;9.11;68.74
59939;BME280;45801;51.810;19.444;2022-10-13T07:24:06;99952.52;;;9.16;69.10
59939;BME280;45801;51.810;19.444;2022-10-13T07:26:33;99949.39;;;9.19;68.96
59939;BME280;45801;51.810;19.444;2022-10-13T07:28:59;99947.38;;;9.23;68.57
59939;BME280;45801;51.810;19.444;2022-10-13T07:31:28;99943.10;;;9.28;68.74
59939;BME280;45801;51.810;19.444;2022-10-13T07:33:54;99940.33;;;9.31;68.82
59939;BME280;45801;51.810;19.444;2022-10-13T07:36:23;99939.74;;;9.36;68.40
59939;BME280;45801;51.810;19.444;2022-10-13T07:38:54;99937.28;;;9.42;68.63
59939;BME280;45801;51.810;19.444;2022-10-13T07:41:21;99933.27;;;9.48;68.62
59939;BME280;45801;51.810;19.444;2022-10-13T07:43:47;99927.20;;;9.55;68.42
59939;BME280;45801;51.810;19.444;2022-10-13T07:46:15;99922.36;;;9.62;68.59
59939;BME280;45801;51.810;19.444;2022-10-13T07:48:41;99918.02;;;9.69;68.59
59939;BME280;45801;51.810;19.444;2022-10-13T07:51:12;99915.20;;;9.77;68.14
59939;BME280;45801;51.810;19.444;2022-10-13T07:53:40;99915.55;;;9.87;67.12
59939;BME280;45801;51.810;19.444;2022-10-13T07:56:10;99918.02;;;9.93;66.66
59939;BME280;45801;51.810;19.444;2022-10-13T07:58:38;99919.10;;;10.00;66.75
59939;BME280;45801;51.810;19.444;2022-10-13T08:01:05;99915.28;;;10.07;66.49
59939;BME280;45801;51.810;19.444;2022-10-13T08:03:32;99913.04;;;10.13;66.23
59939;BME280;45801;51.810;19.444;2022-10-13T08:06:00;99907.70;;;10.18;65.07
59939;BME280;45801;51.810;19.444;2022-10-13T08:08:27;99905.08;;;10.24;65.51
59939;BME280;45801;51.810;19.444;2022-10-13T08:10:54;99902.75;;;10.30;65.47
59939;BME280;45801;51.810;19.444;2022-10-13T08:13:21;99901.88;;;10.36;65.00
59939;BME280;45801;51.810;19.444;2022-10-13T08:15:48;99899.27;;;10.42;64.92
59939;BME280;45801;51.810;19.444;2022-10-13T08:18:14;99902.69;;;10.51;63.60
59939;BME280;45801;51.810;19.444;2022-10-13T08:20:41;99903.89;;;10.61;63.63
59939;BME280;45801;51.810;19.444;2022-10-13T08:23:09;99904.15;;;10.69;63.65
59939;BME280;45801;51.810;19.444;2022-10-13T08:25:39;99900.52;;;10.76;64.04
59939;BME280;45801;51.810;19.444;2022-10-13T08:28:22;99900.45;;;10.85;63.87
59939;BME280;45801;51.810;19.444;2022-10-13T08:30:49;99899.63;;;10.92;63.82
59939;BME280;45801;51.810;19.444;2022-10-13T08:33:17;99897.65;;;10.98;63.20
59939;BME280;45801;51.810;19.444;2022-10-13T08:35:43;99896.77;;;11.05;63.12
59939;BME280;45801;51.810;19.444;2022-10-13T08:38:09;99896.28;;;11.12;62.88
59939;BME280;45801;51.810;19.444;2022-10-13T08:40:37;99892.44;;;11.19;62.39
59939;BME280;45801;51.810;19.444;2022-10-13T08:43:06;99890.61;;;11.28;62.31
59939;BME280;45801;51.810;19.444;2022-10-13T08:45:33;99886.88;;;11.37;62.37
59939;BME280;45801;51.810;19.444;2022-10-13T08:48:11;99888.80;;;11.48;62.34
59939;BME280;45801;51.810;19.444;2022-10-13T08:50:42;99890.58;;;11.59;62.30
59939;BME280;45801;51.810;19.444;2022-10-13T08:53:22;99891.06;;;11.69;61.98
59939;BME280;45801;51.810;19.444;2022-10-13T08:55:55;99885.88;;;11.78;61.48
59939;BME280;45801;51.810;19.444;2022-10-13T08:58:26;99882.25;;;11.87;61.28
59939;BME280;45801;51.810;19.444;2022-10-13T09:07:04;99872.90;;;12.10;59.77
59939;BME280;45801;51.810;19.444;2022-10-13T09:09:32;99870.66;;;12.18;60.49
59939;BME280;45801;51.810;19.444;2022-10-13T09:11:58;99867.98;;;12.25;60.73
59939;BME280;45801;51.810;19.444;2022-10-13T09:14:31;99862.92;;;12.30;59.11
59939;BME280;45801;51.810;19.444;2022-10-13T09:17:22;99860.73;;;12.35;59.66
59939;BME280;45801;51.810;19.444;2022-10-13T09:20:03;99855.05;;;12.42;59.83
59939;BME280;45801;51.810;19.444;2022-10-13T09:22:36;99847.28;;;12.49;59.59
59939;BME280;45801;51.810;19.444;2022-10-13T09:35:35;99837.94;;;12.88;58.08
59939;BME280;45801;51.810;19.444;2022-10-13T09:38:29;99838.06;;;12.95;57.84
59939;BME280;45801;51.810;19.444;2022-10-13T09:41:05;99845.75;;;13.02;57.79
59939;BME280;45801;51.810;19.444;2022-10-13T09:46:20;99843.35;;;13.20;58.24
59939;BME280;45801;51.810;19.444;2022-10-13T09:48:51;99836.02;;;13.25;56.21
59939;BME280;45801;51.810;19.444;2022-10-13T09:51:46;99834.91;;;13.32;57.45
59939;BME280;45801;51.810;19.444;2022-10-13T10:00:05;99818.95;;;13.67;57.75
59939;BME280;45801;51.810;19.444;2022-10-13T10:02:40;99810.49;;;13.80;56.81
59939;BME280;45801;51.810;19.444;2022-10-13T10:05:22;99810.48;;;13.90;56.96
59939;BME280;45801;51.810;19.444;2022-10-13T10:07:49;99808.02;;;13.98;55.78
59939;BME280;45801;51.810;19.444;2022-10-13T10:10:34;99805.04;;;14.08;55.83
59939;BME280;45801;51.810;19.444;2022-10-13T10:13:02;99797.80;;;14.17;55.62
59939;BME280;45801;51.810;19.444;2022-10-13T10:16:00;99792.86;;;14.26;55.39
59939;BME280;45801;51.810;19.444;2022-10-13T10:18:47;99790.66;;;14.33;54.44
59939;BME280;45801;51.810;19.444;2022-10-13T10:21:35;99787.39;;;14.45;54.69
59939;BME280;45801;51.810;19.444;2022-10-13T10:24:20;99780.80;;;14.53;52.66
59939;BME280;45801;51.810;19.444;2022-10-13T10:27:03;99780.83;;;14.58;53.06
59939;BME280;45801;51.810;19.444;2022-10-13T10:29:43;99780.58;;;14.66;53.28
59939;BME280;45801;51.810;19.444;2022-10-13T10:38:10;99777.61;;;14.91;52.64
59939;BME280;45801;51.810;19.444;2022-10-13T10:40:39;99775.19;;;15.03;53.78
59939;BME280;45801;51.810;19.444;2022-10-13T10:46:06;99766.26;;;15.31;53.43
59939;BME280;45801;51.810;19.444;2022-10-13T10:48:38;99757.31;;;15.45;53.15
59939;BME280;45801;51.810;19.444;2022-10-13T10:51:06;99757.30;;;15.55;51.80
59939;BME280;45801;51.810;19.444;2022-10-13T11:01:42;99749.95;;;15.91;50.66
59939;BME280;45801;51.810;19.444;2022-10-13T11:04:40;99750.72;;;15.99;49.99
59939;BME280;45801;51.810;19.444;2022-10-13T11:10:01;99747.98;;;16.08;51.11
59939;BME280;45801;51.810;19.444;2022-10-13T11:13:05;99741.44;;;16.20;51.65
59939;BME280;45801;51.810;19.444;2022-10-13T11:15:42;99736.50;;;16.33;51.13
59939;BME280;45801;51.810;19.444;2022-10-13T11:21:13;99737.84;;;16.56;51.78
59939;BME280;45801;51.810;19.444;2022-10-13T11:23:46;99733.33;;;16.65;50.66
59939;BME280;45801;51.810;19.444;2022-10-13T11:26:26;99725.29;;;16.69;50.26
59939;BME280;45801;51.810;19.444;2022-10-13T11:28:53;99723.40;;;16.78;51.37
59939;BME280;45801;51.810;19.444;2022-10-13T11:31:34;99717.14;;;16.88;51.56
59939;BME280;45801;51.810;19.444;2022-10-13T11:34:26;99714.27;;;17.00;50.89
59939;BME280;45801;51.810;19.444;2022-10-13T11:36:55;99717.63;;;17.07;50.57
59939;BME280;45801;51.810;19.444;2022-10-13T11:39:35;99717.65;;;17.08;47.86
59939;BME280;45801;51.810;19.444;2022-10-13T11:44:53;99714.54;;;17.11;49.53
59939;BME280;45801;51.810;19.444;2022-10-13T11:53:55;99707.30;;;17.26;50.00
59939;BME280;45801;51.810;19.444;2022-10-13T11:56:45;99701.23;;;17.32;50.87
59939;BME280;45801;51.810;19.444;2022-10-13T11:59:28;99693.05;;;17.37;49.25
59939;BME280;45801;51.810;19.444;2022-10-13T12:04:35;99685.30;;;17.40;47.25
59939;BME280;45801;51.810;19.444;2022-10-13T12:07:05;99687.21;;;17.39;49.57
59939;BME280;45801;51.810;19.444;2022-10-13T12:09:35;99680.04;;;17.34;46.25
59939;BME280;45801;51.810;19.444;2022-10-13T12:12:15;99677.61;;;17.28;47.12
59939;BME280;45801;51.810;19.444;2022-10-13T12:14:48;99676.10;;;17.32;49.50
59939;BME280;45801;51.810;19.444;2022-10-13T12:19:53;99668.36;;;17.51;49.36
59939;BME280;45801;51.810;19.444;2022-10-13T12:22:20;99666.02;;;17.57;48.80
59939;BME280;45801;51.810;19.444;2022-10-13T12:25:02;99663.15;;;17.63;48.77
59939;BME280;45801;51.810;19.444;2022-10-13T12:27:50;99651.52;;;17.66;47.44
59939;BME280;45801;51.810;19.444;2022-10-13T12:30:31;99649.73;;;17.65;48.30
59939;BME280;45801;51.810;19.444;2022-10-13T12:33:21;99648.07;;;17.62;47.83
59939;BME280;45801;51.810;19.444;2022-10-13T12:35:48;99644.79;;;17.58;48.66
59939;BME280;45801;51.810;19.444;2022-10-13T12:38:20;99645.41;;;17.54;49.27
59939;BME280;45801;51.810;19.444;2022-10-13T12:40:47;99644.98;;;17.50;49.32
59939;BME280;45801;51.810;19.444;2022-10-13T12:43:18;99644.29;;;17.43;48.81
59939;BME280;45801;51.810;19.444;2022-10-13T12:45:46;99642.07;;;17.30;47.24
59939;BME280;45801;51.810;19.444;2022-10-13T12:48:34;99644.24;;;17.18;47.14
59939;BME280;45801;51.810;19.444;2022-10-13T12:51:17;99641.00;;;17.00;47.03
59939;BME280;45801;51.810;19.444;2022-10-13T12:53:46;99639.67;;;16.89;47.86
59939;BME280;45801;51.810;19.444;2022-10-13T12:56:28;99642.49;;;16.83;47.97
59939;BME280;45801;51.810;19.444;2022-10-13T12:58:56;99639.81;;;16.74;47.65
59939;BME280;45801;51.810;19.444;2022-10-13T13:01:31;99633.54;;;16.64;48.56
59939;BME280;45801;51.810;19.444;2022-10-13T13:07:02;99634.47;;;16.45;47.49
59939;BME280;45801;51.810;19.444;2022-10-13T13:09:35;99633.73;;;16.36;48.22
59939;BME280;45801;51.810;19.444;2022-10-13T13:14:40;99629.94;;;16.20;48.97
59939;BME280;45801;51.810;19.444;2022-10-13T13:17:20;99623.96;;;16.08;47.90
59939;BME280;45801;51.810;19.444;2022-10-13T13:19:50;99622.33;;;16.00;48.98
59939;BME280;45801;51.810;19.444;2022-10-13T13:22:17;99614.61;;;15.96;49.80
59939;BME280;45801;51.810;19.444;2022-10-13T13:24:45;99612.95;;;15.94;49.63
59939;BME280;45801;51.810;19.444;2022-10-13T13:27:24;99611.59;;;15.89;50.32
59939;BME280;45801;51.810;19.444;2022-10-13T13:29:53;99607.36;;;15.83;49.90
59939;BME280;45801;51.810;19.444;2022-10-13T13:32:22;99607.85;;;15.76;50.23
59939;BME280;45801;51.810;19.444;2022-10-13T13:34:48;99605.79;;;15.72;50.41
59939;BME280;45801;51.810;19.444;2022-10-13T13:37:23;99610.14;;;15.70;50.57
59939;BME280;45801;51.810;19.444;2022-10-13T13:39:50;99603.72;;;15.68;50.72
59939;BME280;45801;51.810;19.444;2022-10-13T13:42:17;99602.08;;;15.66;51.23
59939;BME280;45801;51.810;19.444;2022-10-13T13:44:44;99597.06;;;15.64;51.55
59939;BME280;45801;51.810;19.444;2022-10-13T13:47:22;99594.01;;;15.62;51.53
59939;BME280;45801;51.810;19.444;2022-10-13T13:49:50;99596.06;;;15.60;51.35
59939;BME280;45801;51.810;19.444;2022-10-13T13:52:20;99595.84;;;15.58;50.47
59939;BME280;45801;51.810;19.444;2022-10-13T13:54:48;99595.05;;;15.56;50.11
59939;BME280;45801;51.810;19.444;2022-10-13T13:57:16;99593.42;;;15.54;50.90
59939;BME280;45801;51.810;19.444;2022-10-13T13:59:43;99594.55;;;15.50;51.09
59939;BME280;45801;51.810;19.444;2022-10-13T14:02:15;99596.80;;;15.48;51.10
59939;BME280;45801;51.810;19.444;2022-10-13T14:04:43;99590.89;;;15.46;50.82
59939;BME280;45801;51.810;19.444;2022-10-13T14:07:10;99586.57;;;15.43;50.78
59939;BME280;45801;51.810;19.444;2022-10-13T14:09:36;99586.91;;;15.43;51.51
59939;BME280;45801;51.810;19.444;2022-10-13T14:12:03;99587.11;;;15.43;50.85
59939;BME280;45801;51.810;19.444;2022-10-13T14:14:30;99586.03;;;15.43;50.60
59939;BME280;45801;51.810;19.444;2022-10-13T14:17:00;99583.96;;;15.44;50.74
59939;BME280;45801;51.810;19.444;2022-10-13T14:19:30;99584.48;;;15.44;51.13
59939;BME280;45801;51.810;19.444;2022-10-13T14:21:57;99586.05;;;15.43;51.15
59939;BME280;45801;51.810;19.444;2022-10-13T14:24:24;99586.23;;;15.43;50.47
59939;BME280;45801;51.810;19.444;2022-10-13T14:26:50;99587.42;;;15.42;51.00
59939;BME280;45801;51.810;19.444;2022-10-13T14:29:17;99585.40;;;15.39;50.56
59939;BME280;45801;51.810;19.444;2022-10-13T14:31:43;99586.08;;;15.39;51.16
59939;BME280;45801;51.810;19.444;2022-10-13T14:34:10;99585.20;;;15.38;51.24